Time;durP1;ratioP1;P1;durP2;ratioP2;P2;SDS_P1;SDS_P2;PMS_P1;PMS_P2;Temp;Humidity;BMP_temperature;BMP_pressure;BME280_temperature;BME280_humidity;BME280_pressure;Samples;Min_cycle;Max_cycle;Signal;HPM_P1;HPM_P2
2024/03/05 00:00:58;;;;;;;;;;;230.70;2252.80;;;;;;5063497;28;19930;-75
2024/03/05 00:03:24;;;;;;;;;;;230.70;2252.80;;;;;;5064134;28;19920;-76
2024/03/05 00:05:50;;;;;;;;;;;230.70;2252.80;;;;;;5063769;28;19995;-77
2024/03/05 00:08:15;;;;;;;;;;;230.50;2252.80;;;;;;5067025;28;19982;-77
2024/03/05 00:10:41;;;;;;;;;;;230.50;2252.80;;;;;;5065887;28;20328;-77
2024/03/05 00:13:07;;;;;;;;;;;230.40;2252.80;;;;;;5070543;28;20005;-76
2024/03/05 00:15:33;;;;;;;;;;;205.70;2252.80;;;;;;5064158;28;19908;-78
2024/03/05 00:17:58;;;;;;;;;;;205.60;2252.80;;;;;;5063414;28;19915;-77
2024/03/05 00:20:24;;;;;;;;;;;205.60;2252.80;;;;;;5073874;28;19908;-77
2024/03/05 00:22:50;;;;;;;;;;;205.50;2252.80;;;;;;5085793;28;20401;-78
2024/03/05 00:25:19;;;;;;;;;;;205.60;2252.80;;;;;;5052839;28;20315;-77
2024/03/05 00:27:44;;;;;;;;;;;205.60;2252.80;;;;;;5054082;28;19905;-77
2024/03/05 00:30:12;;;;;;;;;;;205.60;2252.80;;;;;;5069380;28;20323;-77
2024/03/05 00:32:37;;;;;;;;;;;205.70;2252.80;;;;;;5053732;28;20513;-77
2024/03/05 00:35:07;;;;;;;;;;;205.70;2252.80;;;;;;5053919;28;19904;-78
2024/03/05 00:37:35;;;;;;;;;;;205.70;2252.80;;;;;;5053737;28;19909;-78
2024/03/05 00:40:01;;;;;;;;;;;205.70;2252.80;;;;;;5054032;28;19999;-78
2024/03/05 00:42:27;;;;;;;;;;;230.40;2252.80;;;;;;5053813;28;20053;-77
2024/03/05 00:44:52;;;;;;;;;;;205.70;2252.80;;;;;;5053828;28;19919;-78
2024/03/05 00:47:18;;;;;;;;;;;205.70;2252.80;;;;;;5069145;28;20308;-78
2024/03/05 00:49:43;;;;;;;;;;;205.70;2252.80;;;;;;5060993;28;19911;-78
2024/03/05 00:52:09;;;;;;;;;;;205.70;2252.80;;;;;;5067737;28;19923;-79
2024/03/05 00:54:35;;;;;;;;;;;205.70;2252.80;;;;;;5064773;28;19909;-77
2024/03/05 00:57:00;;;;;;;;;;;205.70;2252.80;;;;;;5072095;28;19904;-77
2024/03/05 00:59:26;;;;;;;;;;;205.70;2252.80;;;;;;5073472;28;19905;-77
2024/03/05 01:01:51;;;;;;;;;;;230.40;2252.80;;;;;;5072086;28;19914;-79
2024/03/05 01:04:17;;;;;;;;;;;230.50;2252.80;;;;;;5072215;28;20277;-77
2024/03/05 01:06:44;;;;;;;;;;;230.40;2252.80;;;;;;5067367;28;19955;-77
2024/03/05 01:09:14;;;;;;;;;;;230.40;2252.80;;;;;;5069844;28;19908;-78
2024/03/05 01:11:41;;;;;;;;;;;205.70;2252.80;;;;;;5077175;28;20293;-78
2024/03/05 01:14:06;;;;;;;;;;;230.40;2252.80;;;;;;5076348;28;19929;-77
2024/03/05 01:16:32;;;;;;;;;;;230.50;2252.80;;;;;;5077150;28;19904;-77
2024/03/05 01:18:59;;;;;;;;;;;230.50;2252.80;;;;;;5077274;28;20376;-78
2024/03/05 01:21:25;;;;;;;;;;;205.70;2252.80;;;;;;5077038;28;19916;-78
2024/03/05 01:23:50;;;;;;;;;;;205.70;2252.80;;;;;;5075866;28;19915;-77
2024/03/05 01:26:16;;;;;;;;;;;205.60;2252.80;;;;;;5075981;28;19951;-78
2024/03/05 01:28:41;;;;;;;;;;;205.70;2252.80;;;;;;5077289;28;19996;-78
2024/03/05 01:31:08;;;;;;;;;;;205.60;2252.80;;;;;;5075689;28;19912;-77
2024/03/05 01:33:35;;;;;;;;;;;205.60;2252.80;;;;;;5077154;28;19908;-77
2024/03/05 01:36:03;;;;;;;;;;;205.50;2252.80;;;;;;5075749;28;19905;-78
2024/03/05 01:38:29;;;;;;;;;;;205.60;2252.80;;;;;;5077158;28;19904;-78
2024/03/05 01:40:55;;;;;;;;;;;205.60;2252.80;;;;;;5076904;28;19974;-78
2024/03/05 01:43:20;;;;;;;;;;;205.60;2252.80;;;;;;5075434;28;19912;-78
2024/03/05 01:45:46;;;;;;;;;;;205.60;2252.80;;;;;;5075574;28;19911;-77
2024/03/05 01:48:13;;;;;;;;;;;205.70;2252.80;;;;;;5076506;28;19912;-78
2024/03/05 01:50:39;;;;;;;;;;;230.40;2252.80;;;;;;5076415;28;19915;-78
2024/03/05 01:53:06;;;;;;;;;;;205.70;2252.80;;;;;;5076799;28;19908;-77
2024/03/05 01:55:32;;;;;;;;;;;230.40;2252.80;;;;;;5075215;28;20004;-76
2024/03/05 01:57:58;;;;;;;;;;;230.40;2252.80;;;;;;5075140;28;20359;-76
2024/03/05 02:00:24;;;;;;;;;;;205.70;2252.80;;;;;;5076500;28;19912;-76
2024/03/05 02:02:51;;;;;;;;;;;230.40;2252.80;;;;;;5076015;28;19904;-77
2024/03/05 02:05:17;;;;;;;;;;;230.40;2252.80;;;;;;5075045;28;19927;-78
2024/03/05 02:07:43;;;;;;;;;;;230.50;2252.80;;;;;;5074374;28;19946;-76
2024/03/05 02:10:09;;;;;;;;;;;230.50;2252.80;;;;;;5076269;28;20342;-77
2024/03/05 02:12:38;;;;;;;;;;;230.40;2252.80;;;;;;5076343;28;19966;-77
2024/03/05 02:15:04;;;;;;;;;;;230.50;2252.80;;;;;;5076354;28;20319;-76
2024/03/05 02:17:30;;;;;;;;;;;230.60;2252.80;;;;;;5075697;28;20002;-77
2024/03/05 02:19:55;;;;;;;;;;;230.70;2252.80;;;;;;5074095;28;20005;-76
2024/03/05 02:22:21;;;;;;;;;;;230.80;2252.80;;;;;;5074400;28;19983;-77
2024/03/05 02:24:47;;;;;;;;;;;230.90;2252.80;;;;;;5076177;28;19971;-76
2024/03/05 02:27:14;;;;;;;;;;;230.80;2252.80;;;;;;5075776;28;20348;-77
2024/03/05 02:29:40;;;;;;;;;;;230.60;2252.80;;;;;;5074760;28;19995;-76
2024/03/05 02:32:06;;;;;;;;;;;230.60;2252.80;;;;;;5075455;28;19962;-76
2024/03/05 02:34:32;;;;;;;;;;;230.60;2252.80;;;;;;5082786;28;19904;-77
2024/03/05 02:36:58;;;;;;;;;;;230.50;2252.80;;;;;;5081997;28;19911;-76
2024/03/05 02:39:24;;;;;;;;;;;230.60;2252.80;;;;;;5075853;28;19994;-77
2024/03/05 02:41:49;;;;;;;;;;;230.80;2252.80;;;;;;5074299;28;19904;-78
2024/03/05 02:44:18;;;;;;;;;;;230.60;2252.80;;;;;;5075574;28;19905;-76
2024/03/05 02:46:44;;;;;;;;;;;230.60;2252.80;;;;;;5075468;28;19904;-76
2024/03/05 02:49:11;;;;;;;;;;;230.60;2252.80;;;;;;5075362;28;19904;-77
2024/03/05 02:51:37;;;;;;;;;;;230.70;2252.80;;;;;;5075045;28;19955;-76
2024/03/05 02:54:03;;;;;;;;;;;230.90;2252.80;;;;;;5067097;28;19909;-76
2024/03/05 02:56:28;;;;;;;;;;;230.90;2252.80;;;;;;5067816;28;19904;-77
2024/03/05 02:58:54;;;;;;;;;;;230.90;2252.80;;;;;;5082557;28;19904;-76
2024/03/05 03:01:19;;;;;;;;;;;230.70;2252.80;;;;;;5081503;28;19999;-77
2024/03/05 03:03:45;;;;;;;;;;;230.60;2252.80;;;;;;5075223;28;19912;-78
2024/03/05 03:06:17;;;;;;;;;;;230.50;2252.80;;;;;;5074899;28;20073;-78
2024/03/05 03:08:43;;;;;;;;;;;230.50;2252.80;;;;;;5074211;28;19998;-79
2024/03/05 03:11:15;;;;;;;;;;;230.40;2252.80;;;;;;5073914;28;19912;-78
2024/03/05 03:13:41;;;;;;;;;;;230.40;2252.80;;;;;;5075186;28;19959;-78
2024/03/05 03:16:07;;;;;;;;;;;230.40;2252.80;;;;;;5073592;28;19911;-79
2024/03/05 03:18:32;;;;;;;;;;;230.40;2252.80;;;;;;5075182;28;19908;-80
2024/03/05 03:20:58;;;;;;;;;;;230.40;2252.80;;;;;;5074664;28;19909;-79
2024/03/05 03:23:24;;;;;;;;;;;230.40;2252.80;;;;;;5075103;28;19909;-78
2024/03/05 03:25:50;;;;;;;;;;;205.70;2252.80;;;;;;5073732;28;20003;-79
2024/03/05 03:28:15;;;;;;;;;;;205.70;2252.80;;;;;;5073553;28;19904;-80
2024/03/05 03:30:41;;;;;;;;;;;205.60;2252.80;;;;;;5072955;28;19904;-79
2024/03/05 03:33:06;;;;;;;;;;;205.60;2252.80;;;;;;5073734;28;19909;-78
2024/03/05 03:35:32;;;;;;;;;;;205.40;2252.80;;;;;;5075537;28;19904;-78
2024/03/05 03:37:58;;;;;;;;;;;205.50;2252.80;;;;;;5084595;28;20312;-79
2024/03/05 03:40:23;;;;;;;;;;;205.40;2252.80;;;;;;5075927;28;19904;-79
2024/03/05 03:42:50;;;;;;;;;;;205.40;2252.80;;;;;;5075218;28;19904;-79
2024/03/05 03:45:17;;;;;;;;;;;205.30;2252.80;;;;;;5070645;28;19908;-79
2024/03/05 03:47:43;;;;;;;;;;;205.30;2252.80;;;;;;5073065;28;19908;-79
2024/03/05 03:50:09;;;;;;;;;;;205.40;2252.80;;;;;;5073190;28;19914;-79
2024/03/05 03:52:35;;;;;;;;;;;205.30;2252.80;;;;;;5074449;28;19971;-78
2024/03/05 03:55:00;;;;;;;;;;;205.40;2252.80;;;;;;5059553;28;20380;-78
2024/03/05 03:57:26;;;;;;;;;;;205.40;2252.80;;;;;;5073262;28;19908;-79
2024/03/05 03:59:52;;;;;;;;;;;205.30;2252.80;;;;;;5085843;28;20396;-78
2024/03/05 04:02:17;;;;;;;;;;;205.50;2252.80;;;;;;5074247;28;19991;-79
2024/03/05 04:04:43;;;;;;;;;;;205.40;2252.80;;;;;;5073968;28;19913;-78
2024/03/05 04:07:08;;;;;;;;;;;205.40;2252.80;;;;;;5072834;28;19904;-78
2024/03/05 04:09:34;;;;;;;;;;;205.40;2252.80;;;;;;5072779;28;20269;-78
2024/03/05 04:11:59;;;;;;;;;;;205.40;2252.80;;;;;;5072634;28;19920;-79
2024/03/05 04:14:25;;;;;;;;;;;205.50;2252.80;;;;;;5072751;28;19912;-78
2024/03/05 04:16:52;;;;;;;;;;;205.50;2252.80;;;;;;5072500;28;19951;-80
2024/03/05 04:19:17;;;;;;;;;;;205.50;2252.80;;;;;;5073803;28;19908;-78
2024/03/05 04:21:43;;;;;;;;;;;205.50;2252.80;;;;;;5072845;28;20274;-79
2024/03/05 04:24:13;;;;;;;;;;;205.40;2252.80;;;;;;5072507;28;19909;-79
2024/03/05 04:26:42;;;;;;;;;;;205.40;2252.80;;;;;;5073992;28;19904;-79
2024/03/05 04:29:09;;;;;;;;;;;205.50;2252.80;;;;;;5072425;28;19905;-78
2024/03/05 04:31:37;;;;;;;;;;;205.60;2252.80;;;;;;5072478;28;20369;-78
2024/03/05 04:34:04;;;;;;;;;;;205.60;2252.80;;;;;;5073721;28;20337;-78
2024/03/05 04:36:31;;;;;;;;;;;205.60;2252.80;;;;;;5072669;28;19904;-79
2024/03/05 04:38:57;;;;;;;;;;;205.60;2252.80;;;;;;5073677;28;20340;-79
2024/03/05 04:41:22;;;;;;;;;;;205.60;2252.80;;;;;;5073932;28;19951;-78
2024/03/05 04:43:48;;;;;;;;;;;205.60;2252.80;;;;;;5073615;28;19940;-79
2024/03/05 04:46:14;;;;;;;;;;;205.60;2252.80;;;;;;5072573;28;19999;-78
2024/03/05 04:48:40;;;;;;;;;;;205.60;2252.80;;;;;;5073337;28;19904;-79
2024/03/05 04:51:09;;;;;;;;;;;205.70;2252.80;;;;;;5073216;28;19924;-79
2024/03/05 04:53:36;;;;;;;;;;;205.70;2252.80;;;;;;5072083;28;20369;-81
2024/03/05 04:56:02;;;;;;;;;;;205.70;2252.80;;;;;;5073550;28;19989;-78
2024/03/05 04:58:27;;;;;;;;;;;205.70;2252.80;;;;;;5072032;28;19904;-78
2024/03/05 05:00:53;;;;;;;;;;;205.60;2252.80;;;;;;5072496;28;19904;-79
2024/03/05 05:03:20;;;;;;;;;;;205.60;2252.80;;;;;;5087005;28;19911;-79
2024/03/05 05:05:45;;;;;;;;;;;205.70;2252.80;;;;;;5071710;28;19905;-79
2024/03/05 05:08:11;;;;;;;;;;;205.70;2252.80;;;;;;5085350;28;19919;-79
2024/03/05 05:10:37;;;;;;;;;;;205.70;2252.80;;;;;;5072046;28;20410;-78
2024/03/05 05:13:03;;;;;;;;;;;205.70;2252.80;;;;;;5071601;28;19923;-77
2024/03/05 05:15:29;;;;;;;;;;;205.70;2252.80;;;;;;5073318;28;19909;-78
2024/03/05 05:17:56;;;;;;;;;;;205.70;2252.80;;;;;;5076712;28;19935;-78
2024/03/05 05:20:21;;;;;;;;;;;205.60;2252.80;;;;;;5098225;28;20003;-77
2024/03/05 05:22:47;;;;;;;;;;;205.70;2252.80;;;;;;5071762;28;20011;-76
2024/03/05 05:25:14;;;;;;;;;;;205.70;2252.80;;;;;;5073376;28;19992;-76
2024/03/05 05:27:40;;;;;;;;;;;230.40;2252.80;;;;;;5072305;28;19927;-77
2024/03/05 05:30:06;;;;;;;;;;;205.70;2252.80;;;;;;5071834;28;20250;-77
2024/03/05 05:32:34;;;;;;;;;;;205.60;2252.80;;;;;;5071707;28;20366;-77
2024/03/05 05:35:03;;;;;;;;;;;205.60;2252.80;;;;;;5073151;28;19905;-78
2024/03/05 05:37:30;;;;;;;;;;;205.70;2252.80;;;;;;5073046;28;19904;-77
2024/03/05 05:39:56;;;;;;;;;;;205.70;2252.80;;;;;;5072787;28;19965;-77
2024/03/05 05:42:23;;;;;;;;;;;205.70;2252.80;;;;;;5072983;28;19905;-77
2024/03/05 05:44:49;;;;;;;;;;;230.40;2252.80;;;;;;5071886;28;19926;-79
2024/03/05 05:47:15;;;;;;;;;;;230.40;2252.80;;;;;;5072882;28;20350;-76
2024/03/05 05:49:41;;;;;;;;;;;230.50;2252.80;;;;;;5073207;28;19911;-77
2024/03/05 05:52:07;;;;;;;;;;;230.60;2252.80;;;;;;5071291;28;19916;-77
2024/03/05 05:54:42;;;;;;;;;;;230.60;2252.80;;;;;;5076608;28;19909;-77
2024/03/05 05:57:08;;;;;;;;;;;230.90;2252.80;;;;;;5075319;28;19908;-77
2024/03/05 05:59:34;;;;;;;;;;;231.00;2252.80;;;;;;5076581;28;19905;-78
2024/03/05 06:01:59;;;;;;;;;;;231.10;2252.80;;;;;;5091398;28;19915;-77
2024/03/05 06:04:25;;;;;;;;;;;231.20;2252.80;;;;;;5070901;28;20367;-77
2024/03/05 06:06:51;;;;;;;;;;;231.30;2252.80;;;;;;5064048;28;19915;-77
2024/03/05 06:09:27;;;;;;;;;;;231.30;2252.80;;;;;;5060607;28;19905;-76
2024/03/05 06:11:53;;;;;;;;;;;231.30;2252.80;;;;;;5065951;28;20003;-78
2024/03/05 06:14:19;;;;;;;;;;;231.30;2252.80;;;;;;5064774;28;20346;-77
2024/03/05 06:16:44;;;;;;;;;;;256.10;2252.80;;;;;;5063122;28;20388;-76
2024/03/05 06:19:10;;;;;;;;;;;256.20;2252.80;;;;;;5061540;28;19905;-78
2024/03/05 06:21:36;;;;;;;;;;;256.50;2252.80;;;;;;5067128;28;19916;-79
2024/03/05 06:24:02;;;;;;;;;;;256.60;2252.80;;;;;;5069598;28;19912;-77
2024/03/05 06:26:28;;;;;;;;;;;256.80;2252.80;;;;;;5066350;28;19904;-77
2024/03/05 06:28:54;;;;;;;;;;;281.60;2278.40;;;;;;5074256;28;19915;-76
2024/03/05 06:31:19;;;;;;;;;;;281.70;2278.40;;;;;;5063620;28;19916;-77
2024/03/05 06:33:45;;;;;;;;;;;281.80;2278.40;;;;;;5064706;28;20003;-78
2024/03/05 06:36:12;;;;;;;;;;;282.00;2278.40;;;;;;5064225;28;19911;-77
2024/03/05 06:38:37;;;;;;;;;;;282.10;2278.40;;;;;;5069776;28;19908;-79
2024/03/05 06:41:04;;;;;;;;;;;282.20;2278.40;;;;;;5065435;28;19927;-79
2024/03/05 06:43:41;;;;;;;;;;;282.10;2278.40;;;;;;5068575;28;20273;-77
2024/03/05 06:46:09;;;;;;;;;;;282.00;2278.40;;;;;;5064854;28;19909;-78
2024/03/05 06:48:37;;;;;;;;;;;282.00;2278.40;;;;;;5063769;28;19904;-78
2024/03/05 06:51:16;;;;;;;;;;;282.00;2278.40;;;;;;5059403;28;19918;-76
2024/03/05 06:56:41;;;;;;;;;;;282.30;2278.40;;;;;;5059365;28;20376;-79
2024/03/05 06:59:08;;;;;;;;;;;282.40;2278.40;;;;;;5062848;28;19989;-79
2024/03/05 07:01:34;;;;;;;;;;;282.30;2278.40;;;;;;5067072;28;19962;-76
2024/03/05 07:04:01;;;;;;;;;;;282.50;2278.40;;;;;;5066744;28;19905;-78
2024/03/05 07:06:27;;;;;;;;;;;282.50;2278.40;;;;;;5064974;28;20010;-78
2024/03/05 07:08:54;;;;;;;;;;;282.50;2278.40;;;;;;5065215;28;20405;-77
2024/03/05 07:11:20;;;;;;;;;;;307.30;2304.00;;;;;;5060909;28;19912;-76
2024/03/05 07:13:47;;;;;;;;;;;307.60;2304.00;;;;;;5061484;28;19904;-76
2024/03/05 07:16:16;;;;;;;;;;;307.80;2304.00;;;;;;5066347;28;20003;-76
2024/03/05 07:18:54;;;;;;;;;;;308.00;2304.00;;;;;;5070590;28;19904;-75
2024/03/05 07:21:21;;;;;;;;;;;308.10;2304.00;;;;;;5064194;28;19940;-75
2024/03/05 07:23:47;;;;;;;;;;;332.90;2329.60;;;;;;5063372;28;19912;-75
2024/03/05 07:26:14;;;;;;;;;;;333.10;2329.60;;;;;;5065840;28;19908;-74
2024/03/05 07:28:40;;;;;;;;;;;333.00;2329.60;;;;;;5067945;28;20022;-76
2024/03/05 07:31:06;;;;;;;;;;;333.20;2329.60;;;;;;5066029;28;19912;-76
2024/03/05 07:33:32;;;;;;;;;;;333.40;2329.60;;;;;;5063690;28;20279;-75
2024/03/05 07:35:58;;;;;;;;;;;333.60;2329.60;;;;;;5062867;28;19904;-77
2024/03/05 07:38:23;;;;;;;;;;;333.70;2329.60;;;;;;5063974;28;19905;-75
2024/03/05 07:40:49;;;;;;;;;;;358.50;2329.60;;;;;;5057909;28;19973;-77
2024/03/05 07:43:14;;;;;;;;;;;358.50;2329.60;;;;;;5065506;28;19911;-78
2024/03/05 07:45:40;;;;;;;;;;;358.80;2329.60;;;;;;5072479;28;19939;-77
2024/03/05 07:48:06;;;;;;;;;;;359.00;2329.60;;;;;;5056227;28;19958;-76
2024/03/05 07:50:32;;;;;;;;;;;359.20;2329.60;;;;;;5063976;28;19912;-75
2024/03/05 07:52:58;;;;;;;;;;;384.00;2329.60;;;;;;5061202;28;19978;-78
2024/03/05 07:55:24;;;;;;;;;;;384.10;2329.60;;;;;;5060882;28;20376;-78
2024/03/05 07:57:52;;;;;;;;;;;384.50;2329.60;;;;;;5060377;28;19904;-77
2024/03/05 08:00:20;;;;;;;;;;;384.50;2304.00;;;;;;5055445;28;19916;-78
2024/03/05 08:02:46;;;;;;;;;;;384.60;2304.00;;;;;;5058099;28;19912;-77
2024/03/05 08:05:17;;;;;;;;;;;384.80;2227.20;;;;;;5064001;28;19909;-78
2024/03/05 08:07:43;;;;;;;;;;;384.90;2150.40;;;;;;5065396;28;19915;-78
2024/03/05 08:31:14;;;;;;;22.58;14.73;;;384.60;2073.60;;;;;;5096542;27;20385;-76
2024/03/05 08:33:41;;;;;;;22.27;14.00;;;410.30;1971.20;;;;;;5108556;28;20031;-77
2024/03/05 08:36:06;;;;;;;31.13;16.55;;;410.20;1945.60;;;;;;5108384;28;20063;-77
2024/03/05 08:38:32;;;;;;;30.60;16.73;;;410.40;1945.60;;;;;;5092570;28;20056;-77
2024/03/05 08:40:58;;;;;;;27.13;15.02;;;410.40;1920.00;;;;;;5086737;28;20463;-78
2024/03/05 08:43:24;;;;;;;20.98;14.68;;;410.40;1920.00;;;;;;5104446;28;20027;-77
2024/03/05 08:45:50;;;;;;;37.03;16.15;;;410.30;1945.60;;;;;;5083830;28;20093;-78
2024/03/05 08:48:16;;;;;;;26.67;12.57;;;435.20;1920.00;;;;;;5082382;28;20029;-79
2024/03/05 08:50:41;;;;;;;27.55;14.23;;;435.40;1843.20;;;;;;5087158;28;20020;-79
2024/03/05 08:53:08;;;;;;;26.13;13.55;;;435.60;1817.60;;;;;;5080716;28;20110;-80
2024/03/05 08:55:35;;;;;;;29.15;12.27;;;435.80;1817.60;;;;;;5087769;28;20043;-79
2024/03/05 08:58:00;;;;;;;26.58;16.30;;;460.80;1817.60;;;;;;5091879;28;20027;-79
2024/03/05 09:00:29;;;;;;;27.48;15.40;;;461.00;1766.40;;;;;;5083121;28;20040;-79
2024/03/05 09:02:55;;;;;;;30.42;14.75;;;461.10;1792.00;;;;;;5092487;28;20034;-79
2024/03/05 09:05:21;;;;;;;21.65;14.27;;;461.20;1766.40;;;;;;5099115;28;20888;-79
2024/03/05 09:07:46;;;;;;;28.92;15.27;;;461.30;1766.40;;;;;;5076130;28;20112;-79
2024/03/05 09:10:14;;;;;;;24.83;14.38;;;461.30;1766.40;;;;;;5082088;28;20051;-78
2024/03/05 09:12:41;;;;;;;23.17;13.27;;;461.40;1740.80;;;;;;5091514;28;20032;-78
2024/03/05 09:15:08;;;;;;;23.75;14.05;;;461.20;1740.80;;;;;;5118553;28;20365;-79
2024/03/05 09:17:34;;;;;;;21.13;13.20;;;461.40;1740.80;;;;;;5086397;28;20041;-79
2024/03/05 09:20:13;;;;;;;27.17;14.45;;;461.40;1715.20;;;;;;5087152;28;20034;-79
2024/03/05 09:22:44;;;;;;;25.02;14.88;;;461.60;1689.60;;;;;;5091053;28;20028;-79
2024/03/05 09:25:13;;;;;;;28.00;15.15;;;461.70;1689.60;;;;;;5098572;28;20031;-79
2024/03/05 09:27:42;;;;;;;22.55;13.85;;;461.70;1638.40;;;;;;5081364;28;20542;-79
2024/03/05 09:30:08;;;;;;;26.08;13.27;;;486.40;1638.40;;;;;;5090991;28;20461;-81
2024/03/05 09:32:35;;;;;;;29.52;15.25;;;486.70;1689.60;;;;;;5074921;28;20036;-80
2024/03/05 09:35:00;;;;;;;20.67;13.95;;;486.70;1638.40;;;;;;5066294;28;20029;-80
2024/03/05 09:37:29;;;;;;;38.50;23.02;;;486.80;1612.80;;;;;;5071233;28;20052;-80
2024/03/05 09:39:55;;;;;;;21.67;12.90;;;487.00;1612.80;;;;;;5067474;28;20040;-80
2024/03/05 09:42:21;;;;;;;22.58;13.38;;;487.10;1612.80;;;;;;5077596;28;20025;-81
2024/03/05 09:44:50;;;;;;;16.40;11.57;;;512.00;1612.80;;;;;;5073217;28;20060;-81
2024/03/05 09:47:17;;;;;;;19.65;12.32;;;512.40;1536.00;;;;;;5069517;28;20037;-80
2024/03/05 09:49:46;;;;;;;18.25;11.40;;;512.50;1510.40;;;;;;5062872;28;20454;-81
2024/03/05 09:52:13;;;;;;;16.77;11.13;;;512.60;1510.40;;;;;;5063719;28;20116;-81
2024/03/05 09:54:39;;;;;;;23.23;12.20;;;512.90;1484.80;;;;;;5084468;28;20058;-80
2024/03/05 09:57:05;;;;;;;20.65;12.55;;;537.60;1510.40;;;;;;5087165;28;20055;-80
2024/03/05 09:59:31;;;;;;;22.13;12.68;;;537.80;1484.80;;;;;;5068053;28;20029;-80
2024/03/05 10:01:57;;;;;;;22.60;13.50;;;538.00;1459.20;;;;;;5072631;28;20027;-79
2024/03/05 10:04:26;;;;;;;28.35;13.35;;;538.30;1459.20;;;;;;5082873;28;20382;-79
2024/03/05 10:06:52;;;;;;;25.05;13.40;;;537.70;1459.20;;;;;;5078216;28;20081;-78
2024/03/05 10:09:18;;;;;;;22.17;12.63;;;512.60;1459.20;;;;;;5062395;28;20024;-78
2024/03/05 10:11:45;;;;;;;18.65;12.65;;;512.10;1484.80;;;;;;5077632;28;20036;-82
2024/03/05 10:14:11;;;;;;;16.92;11.43;;;512.10;1510.40;;;;;;5071077;28;20489;-85
2024/03/05 10:16:38;;;;;;;23.52;12.75;;;487.30;1536.00;;;;;;5083271;28;20481;-82
2024/03/05 10:19:17;;;;;;;23.98;11.70;;;487.10;1510.40;;;;;;5066584;28;20032;-80
2024/03/05 10:21:44;;;;;;;19.77;11.52;;;487.10;1561.60;;;;;;5061980;28;20428;-78
2024/03/05 10:24:11;;;;;;;22.27;12.57;;;487.30;1510.40;;;;;;5072149;28;20039;-78
2024/03/05 10:26:38;;;;;;;24.70;12.60;;;512.10;1510.40;;;;;;5080020;28;20412;-79
2024/03/05 10:29:09;;;;;;;20.70;13.40;;;487.30;1536.00;;;;;;5067449;28;20036;-80
2024/03/05 10:31:39;;;;;;;18.10;11.07;;;487.10;1510.40;;;;;;5079499;28;20083;-80
2024/03/05 10:34:08;;;;;;;22.55;13.77;;;487.10;1536.00;;;;;;5065876;28;20056;-79
2024/03/05 10:36:40;;;;;;;18.08;10.27;;;487.00;1536.00;;;;;;5072375;28;20025;-79
2024/03/05 10:39:08;;;;;;;20.77;11.80;;;486.90;1561.60;;;;;;5060699;28;20059;-78
2024/03/05 10:41:37;;;;;;;25.70;12.52;;;486.80;1561.60;;;;;;5056430;28;20029;-79
2024/03/05 10:44:05;;;;;;;17.92;11.82;;;486.80;1536.00;;;;;;5083718;28;20055;-80
2024/03/05 10:46:32;;;;;;;18.40;10.98;;;486.80;1536.00;;;;;;5081144;28;20027;-79
2024/03/05 10:48:59;;;;;;;24.17;12.57;;;487.10;1510.40;;;;;;5076095;28;20088;-77
2024/03/05 10:51:29;;;;;;;20.55;13.23;;;512.70;1459.20;;;;;;5097334;28;20036;-82
2024/03/05 10:53:59;;;;;;;23.27;12.68;;;537.70;1459.20;;;;;;5077530;28;20035;-78
2024/03/05 10:56:25;;;;;;;21.55;11.73;;;538.00;1433.60;;;;;;5074057;28;20249;-82
2024/03/05 11:01:39;;;;;;;25.55;13.65;;;537.60;1433.60;;;;;;5067219;28;20120;-81
2024/03/05 11:04:20;;;;;;;21.73;12.43;;;537.80;1433.60;;;;;;5070093;28;20029;-81
2024/03/05 11:06:52;;;;;;;18.10;11.90;;;537.80;1459.20;;;;;;5077992;28;20474;-80
2024/03/05 11:09:20;;;;;;;25.30;11.43;;;538.10;1459.20;;;;;;5067897;28;20127;-83
2024/03/05 11:11:56;;;;;;;17.38;10.90;;;512.90;1459.20;;;;;;5083844;28;20366;-82
2024/03/05 11:14:24;;;;;;;21.50;11.55;;;512.60;1484.80;;;;;;5070112;28;20086;-84
2024/03/05 11:16:57;;;;;;;16.90;11.73;;;512.50;1510.40;;;;;;5070903;28;20025;-79
2024/03/05 11:19:28;;;;;;;19.98;12.23;;;512.20;1484.80;;;;;;5069905;28;20032;-78
2024/03/05 11:21:54;;;;;;;20.40;11.30;;;512.20;1510.40;;;;;;5062272;28;20485;-77
2024/03/05 11:24:21;;;;;;;25.48;12.05;;;512.60;1536.00;;;;;;5057672;28;20029;-77
2024/03/05 11:26:47;;;;;;;19.67;10.88;;;537.70;1484.80;;;;;;5067879;28;20036;-76
2024/03/05 11:29:16;;;;;;;21.40;11.20;;;538.00;1433.60;;;;;;5078771;28;20059;-78
2024/03/05 11:31:53;;;;;;;14.93;10.07;;;537.80;1459.20;;;;;;5064483;28;20035;-78
2024/03/05 11:34:19;;;;;;;21.60;11.05;;;537.80;1459.20;;;;;;5061872;28;20033;-79
2024/03/05 11:37:05;;;;;;;16.58;10.70;;;537.70;1484.80;;;;;;5064379;28;20040;-80
2024/03/05 11:39:30;;;;;;;20.73;11.30;;;537.80;1484.80;;;;;;5071417;28;20041;-77
2024/03/05 11:41:59;;;;;;;16.20;11.10;;;537.70;1484.80;;;;;;5075438;28;20032;-78
2024/03/05 11:44:31;;;;;;;23.02;11.48;;;538.30;1459.20;;;;;;5075683;28;20529;-81
2024/03/05 11:46:57;;;;;;;20.20;11.18;;;538.50;1459.20;;;;;;5072511;28;20083;-81
2024/03/05 11:49:23;;;;;;;17.73;11.55;;;538.20;1510.40;;;;;;5061649;28;20477;-79
2024/03/05 11:51:49;;;;;;;17.83;10.60;;;538.00;1459.20;;;;;;5074564;28;20034;-78
2024/03/05 11:54:20;;;;;;;19.23;11.27;;;538.10;1459.20;;;;;;5073923;28;20028;-80
2024/03/05 11:56:56;;;;;;;22.63;12.23;;;538.00;1459.20;;;;;;5066124;28;20029;-80
2024/03/05 11:59:32;;;;;;;;;;;538.50;1459.20;;;;;;5069343;28;20067;-79
2024/03/05 12:01:58;;;;;;;17.10;11.43;;;563.20;1510.40;;;;;;5076064;28;19912;-79
2024/03/05 12:04:26;;;;;;;19.30;10.77;;;563.20;1484.80;;;;;;5072626;28;20103;-78
2024/03/05 12:07:07;;;;;;;14.13;9.98;;;538.30;1484.80;;;;;;5075953;28;20024;-78
2024/03/05 12:09:39;;;;;;;16.15;8.82;;;538.30;1459.20;;;;;;5062161;28;20017;-79
2024/03/05 12:12:10;;;;;;;17.60;9.63;;;538.30;1459.20;;;;;;5062782;28;20025;-80
2024/03/05 12:14:57;;;;;;;14.02;9.57;;;538.30;1459.20;;;;;;5073859;28;20017;-79
2024/03/05 12:17:24;;;;;;;24.00;9.35;;;538.40;1433.60;;;;;;5069461;28;20033;-78
2024/03/05 12:20:08;;;;;;;17.73;9.27;;;538.50;1433.60;;;;;;5084178;28;20024;-76
2024/03/05 12:22:40;;;;;;;17.85;9.63;;;563.50;1433.60;;;;;;5061711;28;20017;-81
2024/03/05 12:25:08;;;;;;;21.80;11.50;;;563.50;1408.00;;;;;;5082917;28;20036;-80
2024/03/05 12:27:35;;;;;;;20.15;10.75;;;563.20;1433.60;;;;;;5071878;28;20519;-80
2024/03/05 12:30:01;;;;;;;15.57;10.00;;;563.20;1408.00;;;;;;5082474;28;20070;-79
2024/03/05 12:32:27;;;;;;;15.25;9.30;;;538.20;1433.60;;;;;;5072498;28;20063;-79
2024/03/05 12:34:53;;;;;;;24.10;12.32;;;538.30;1459.20;;;;;;5063831;28;20063;-79
2024/03/05 12:37:19;;;;;;;14.73;10.32;;;538.00;1459.20;;;;;;5072102;28;20021;-79
2024/03/05 12:39:45;;;;;;;14.15;9.18;;;537.70;1459.20;;;;;;5063446;28;20032;-79
2024/03/05 12:42:13;;;;;;;17.60;10.80;;;512.80;1459.20;;;;;;5070720;28;20164;-80
2024/03/05 12:44:40;;;;;;;16.83;9.27;;;512.90;1484.80;;;;;;5073393;28;20032;-79
2024/03/05 12:47:11;;;;;;;16.77;10.05;;;537.70;1459.20;;;;;;5078734;28;20117;-79
2024/03/05 12:49:44;;;;;;;16.80;10.00;;;538.20;1459.20;;;;;;5065236;28;20036;-79
2024/03/05 12:52:21;;;;;;;17.90;10.32;;;538.50;1433.60;;;;;;5071671;28;20120;-79
2024/03/05 12:54:56;;;;;;;18.70;11.25;;;538.50;1433.60;;;;;;5072086;28;20032;-79
2024/03/05 12:57:26;;;;;;;20.23;10.60;;;563.20;1484.80;;;;;;5070931;28;20023;-79
2024/03/05 12:59:52;;;;;;;20.25;11.65;;;563.30;1484.80;;;;;;5065368;28;20132;-80
2024/03/05 13:02:18;;;;;;;18.98;11.80;;;563.40;1459.20;;;;;;5075565;28;20055;-79
2024/03/05 13:04:44;;;;;;;19.92;11.52;;;563.60;1433.60;;;;;;5070385;28;20473;-80
2024/03/05 13:07:11;;;;;;;15.63;10.95;;;563.40;1459.20;;;;;;5074298;28;20031;-78
2024/03/05 13:09:38;;;;;;;17.85;11.40;;;563.50;1459.20;;;;;;5068896;28;20470;-78
2024/03/05 13:12:07;;;;;;;20.98;11.68;;;563.30;1433.60;;;;;;5072647;28;20029;-80
2024/03/05 13:14:33;;;;;;;20.17;10.80;;;538.50;1408.00;;;;;;5073363;28;20029;-79
2024/03/05 13:16:59;;;;;;;20.98;11.50;;;563.30;1433.60;;;;;;5080784;28;20074;-79
2024/03/05 13:19:25;;;;;;;22.33;11.60;;;563.30;1433.60;;;;;;5076378;28;20115;-80
2024/03/05 13:21:50;;;;;;;23.80;13.32;;;563.20;1433.60;;;;;;5076849;28;20029;-79
2024/03/05 13:24:16;;;;;;;20.73;11.05;;;538.50;1433.60;;;;;;5072882;28;20040;-79
2024/03/05 13:26:48;;;;;;;23.23;11.50;;;538.40;1484.80;;;;;;5084006;28;20023;-79